Portada
METAR-TAF:

METAR-TAF

Aeroports :

Tela, Hondures

latitud: 15-43N, longitud: 087-29W, altitud: 3 m

Observació

L'informe es va fer fa 1 hora i 43 minuts, a les 22:00 UTC
Vent 4 kt del Nord
Temperatura 32°C
Humitat 71%
Pressió 1010 hPa
Visibilitat 10 km o més
Núvols disperses a una alçada de 2600 ft, Cumulus congestus.
calitja

METAR: MHTE 172200Z 36004KT 9999 SCT026TCU 32/26 Q1010 TCU SW HZ

Hora: 17:43 (23:43 UTC)


TAF: manca

Observacions i pronòstics meteorològics de més de 4000 aeroports (METAR i TAF).

Les estacions disponibles són els punts grocs i vermells al mapa.

Posi el ratolí al punt desitjat per veure el nom de l'estació.

Feu clic per veure les observacions i els pronòstics meteorològics.

Per canviar el mapa: feu clic els botons verds amb una creu de color negre per apropar; al botó verd amb un guió per allunyar la imatge; o en les fletxes verdes per a mapes adjacents.


METAR-TAF: